Time;durP1;ratioP1;P1;durP2;ratioP2;P2;SDS_P1;SDS_P2;PMS_P1;PMS_P2;Temp;Humidity;BMP_temperature;BMP_pressure;BME280_temperature;BME280_humidity;BME280_pressure;Samples;Min_cycle;Max_cycle;Signal;HPM_P1;HPM_P2
2023/08/12 00:00:11;;;;;;;4.55;3.28;;;19.40;99.90;;;;;;4947087;28;20039;-71
2023/08/12 00:02:46;;;;;;;3.58;3.13;;;19.50;99.90;;;;;;4959421;28;20086;-71
2023/08/12 00:05:12;;;;;;;4.35;2.72;;;19.50;99.90;;;;;;4943708;28;20775;-71
2023/08/12 00:07:43;;;;;;;4.95;2.50;;;19.40;99.90;;;;;;4945277;28;20047;-71
2023/08/12 00:10:10;;;;;;;5.07;2.90;;;19.40;99.90;;;;;;4926496;28;20525;-71
2023/08/12 00:12:36;;;;;;;3.55;2.83;;;19.40;99.90;;;;;;4958977;28;20054;-71
2023/08/12 00:15:04;;;;;;;3.88;2.80;;;19.40;99.90;;;;;;4945229;28;20102;-71
2023/08/12 00:17:30;;;;;;;5.25;2.90;;;19.40;99.90;;;;;;4944766;28;20035;-71
2023/08/12 00:19:55;;;;;;;4.45;2.97;;;19.40;99.90;;;;;;4943387;28;20397;-71
2023/08/12 00:22:22;;;;;;;5.53;3.20;;;19.40;99.90;;;;;;4930544;28;20044;-71
2023/08/12 00:24:47;;;;;;;7.35;3.22;;;19.30;99.90;;;;;;4946170;28;20455;-72
2023/08/12 00:27:13;;;;;;;7.53;3.97;;;19.30;99.90;;;;;;4944732;28;20243;-72
2023/08/12 00:29:39;;;;;;;11.90;4.53;;;19.40;99.90;;;;;;4944380;28;20502;-71
2023/08/12 00:32:05;;;;;;;5.07;3.00;;;19.30;99.90;;;;;;4927842;29;20051;-71
2023/08/12 00:34:31;;;;;;;5.65;3.50;;;19.30;99.90;;;;;;4944620;28;20090;-71
2023/08/12 00:36:56;;;;;;;6.57;3.90;;;19.30;99.90;;;;;;4946543;28;20074;-71
2023/08/12 00:39:22;;;;;;;6.75;3.75;;;19.30;99.90;;;;;;4930127;29;20040;-71
2023/08/12 00:41:48;;;;;;;5.55;3.78;;;19.30;99.90;;;;;;4944002;28;20051;-71
2023/08/12 00:44:14;;;;;;;5.88;4.10;;;19.30;99.90;;;;;;4947697;28;20108;-72
2023/08/12 00:46:41;;;;;;;8.02;4.07;;;19.30;99.90;;;;;;4927396;28;20482;-72
2023/08/12 00:49:06;;;;;;;8.88;4.28;;;19.20;99.90;;;;;;4928781;29;20048;-71
2023/08/12 00:51:32;;;;;;;8.15;4.68;;;19.20;99.90;;;;;;4929991;29;20070;-71
2023/08/12 00:53:59;;;;;;;5.47;4.20;;;19.20;99.90;;;;;;4945543;28;20122;-71
2023/08/12 00:56:25;;;;;;;5.30;4.20;;;19.20;99.90;;;;;;4960192;28;20047;-71
2023/08/12 00:58:52;;;;;;;6.78;3.88;;;19.20;99.90;;;;;;4927393;28;20047;-71
2023/08/12 01:01:19;;;;;;;9.38;4.03;;;19.20;99.90;;;;;;4960212;28;20046;-71
2023/08/12 01:03:45;;;;;;;8.85;4.15;;;19.20;99.90;;;;;;4961707;28;20046;-71
2023/08/12 01:06:10;;;;;;;7.57;4.32;;;19.20;99.90;;;;;;4945189;28;20039;-71
2023/08/12 01:08:36;;;;;;;7.43;4.90;;;19.20;99.90;;;;;;4947104;28;20046;-71
2023/08/12 01:11:20;;;;;;;6.85;5.20;;;19.20;99.90;;;;;;4949618;28;20043;-71
2023/08/12 01:14:01;;;;;;;9.95;4.40;;;19.20;99.90;;;;;;4959036;28;20043;-71
2023/08/12 01:16:32;;;;;;;8.52;4.85;;;19.20;99.90;;;;;;4962000;28;20059;-71
2023/08/12 01:18:59;;;;;;;7.78;4.93;;;19.20;99.90;;;;;;4950170;28;20046;-71
2023/08/12 01:21:29;;;;;;;7.63;5.28;;;19.10;99.90;;;;;;4962768;28;20051;-71
2023/08/12 01:23:55;;;;;;;4.97;3.97;;;19.10;99.90;;;;;;4962986;28;20063;-71
2023/08/12 01:26:21;;;;;;;6.65;4.25;;;19.10;99.90;;;;;;4947689;28;20533;-71
2023/08/12 01:28:47;;;;;;;10.73;7.18;;;19.10;99.90;;;;;;4949582;28;20043;-71
2023/08/12 01:31:19;;;;;;;9.07;5.68;;;19.10;99.90;;;;;;4950223;28;20127;-71
2023/08/12 01:33:53;;;;;;;10.05;6.57;;;19.00;99.90;;;;;;4962669;28;20043;-72
2023/08/12 01:36:21;;;;;;;10.45;6.78;;;19.00;99.90;;;;;;4962139;28;20051;-72
2023/08/12 01:38:49;;;;;;;7.93;6.78;;;19.10;99.90;;;;;;4945321;28;20031;-71
2023/08/12 01:41:16;;;;;;;7.90;5.72;;;19.00;99.90;;;;;;4950204;28;20045;-71
2023/08/12 01:43:42;;;;;;;7.13;5.38;;;19.00;99.90;;;;;;4964160;28;20047;-71
2023/08/12 01:46:08;;;;;;;6.88;5.50;;;19.00;99.90;;;;;;4946513;28;20062;-72
2023/08/12 01:48:33;;;;;;;7.07;5.18;;;18.90;99.90;;;;;;4946400;28;20078;-72
2023/08/12 01:50:59;;;;;;;7.82;6.25;;;18.90;99.90;;;;;;4949727;28;20041;-72
2023/08/12 01:53:25;;;;;;;8.35;6.53;;;18.90;99.90;;;;;;4929756;28;20044;-71
2023/08/12 01:55:52;;;;;;;8.70;6.18;;;18.80;99.90;;;;;;4929772;29;20462;-71
2023/08/12 01:58:17;;;;;;;7.88;5.53;;;18.80;99.90;;;;;;4930331;29;20041;-72
2023/08/12 02:00:43;;;;;;;7.15;6.35;;;18.90;99.90;;;;;;4947903;28;20038;-72
2023/08/12 02:03:08;;;;;;;8.52;6.07;;;18.80;99.90;;;;;;4960864;28;20072;-72
2023/08/12 02:05:34;;;;;;;10.68;7.53;;;18.80;99.90;;;;;;4944611;28;20046;-71
2023/08/12 02:07:59;;;;;;;13.07;7.43;;;18.80;99.90;;;;;;4945286;28;20035;-72
2023/08/12 02:10:25;;;;;;;12.23;8.27;;;18.80;99.90;;;;;;4949010;28;20039;-72
2023/08/12 02:12:51;;;;;;;8.73;7.22;;;18.90;99.90;;;;;;4928211;29;20043;-72
2023/08/12 02:15:16;;;;;;;11.48;7.43;;;18.90;99.90;;;;;;4959688;28;20496;-72
2023/08/12 02:17:42;;;;;;;10.15;7.35;;;18.90;99.90;;;;;;4946831;28;20066;-71
2023/08/12 02:20:08;;;;;;;8.20;6.40;;;18.90;99.90;;;;;;4933843;29;20040;-72
2023/08/12 02:22:33;;;;;;;7.05;5.80;;;18.90;99.90;;;;;;4946964;28;20071;-72
2023/08/12 02:24:59;;;;;;;10.98;7.07;;;18.90;99.90;;;;;;4947164;28;20047;-72
2023/08/12 02:27:25;;;;;;;11.98;8.65;;;18.90;99.90;;;;;;4931863;28;20058;-72
2023/08/12 02:29:51;;;;;;;8.50;7.43;;;19.00;99.90;;;;;;4930533;29;20504;-72
2023/08/12 02:32:16;;;;;;;10.65;8.15;;;18.90;99.90;;;;;;4928216;29;20107;-72
2023/08/12 02:34:42;;;;;;;10.65;8.75;;;19.00;99.90;;;;;;4945018;28;20114;-72
2023/08/12 02:37:07;;;;;;;10.07;7.78;;;19.00;99.90;;;;;;4925519;29;20058;-72
2023/08/12 02:39:33;;;;;;;11.30;8.70;;;19.00;99.90;;;;;;4917728;28;20454;-72
2023/08/12 02:41:58;;;;;;;10.40;9.30;;;19.00;99.90;;;;;;4948072;28;20122;-72
2023/08/12 02:44:24;;;;;;;11.90;8.00;;;19.10;99.90;;;;;;4930011;29;20502;-72
2023/08/12 02:46:50;;;;;;;12.05;7.93;;;19.00;99.90;;;;;;4945172;28;20047;-72
2023/08/12 02:49:15;;;;;;;14.73;8.18;;;19.00;99.90;;;;;;4928593;29;20050;-72
2023/08/12 02:51:41;;;;;;;11.15;7.53;;;19.00;99.90;;;;;;4947142;28;20031;-72
2023/08/12 02:54:06;;;;;;;11.23;8.05;;;19.00;99.90;;;;;;4946511;28;20047;-72
2023/08/12 02:56:32;;;;;;;12.55;8.00;;;18.90;99.90;;;;;;4947256;28;20130;-72
2023/08/12 02:58:58;;;;;;;9.40;7.57;;;19.00;99.90;;;;;;4948759;28;20039;-72
2023/08/12 03:01:24;;;;;;;8.80;7.28;;;18.90;99.90;;;;;;4929359;29;20098;-72
2023/08/12 03:03:50;;;;;;;14.02;8.00;;;18.90;99.90;;;;;;4945429;28;20086;-72
2023/08/12 03:06:16;;;;;;;11.05;8.40;;;19.10;99.90;;;;;;4946738;28;20585;-72
2023/08/12 03:08:42;;;;;;;10.75;8.05;;;18.90;99.90;;;;;;4928240;29;20051;-72
2023/08/12 03:11:07;;;;;;;13.30;8.57;;;18.80;99.90;;;;;;4960577;28;20039;-72
2023/08/12 03:13:33;;;;;;;7.72;7.03;;;18.90;99.90;;;;;;4945800;28;20051;-72
2023/08/12 03:15:58;;;;;;;9.88;8.50;;;18.90;99.90;;;;;;4927876;29;20058;-71
2023/08/12 03:18:24;;;;;;;15.88;8.15;;;18.90;99.90;;;;;;4930260;28;20078;-72
2023/08/12 03:20:50;;;;;;;13.35;6.63;;;18.90;99.90;;;;;;4924883;29;20049;-72
2023/08/12 03:23:15;;;;;;;10.02;7.40;;;18.90;99.90;;;;;;4924858;29;20056;-72
2023/08/12 03:25:41;;;;;;;11.45;8.00;;;18.90;99.90;;;;;;4945753;28;20110;-72
2023/08/12 03:28:07;;;;;;;10.45;8.20;;;18.90;99.90;;;;;;4946283;28;20038;-72
2023/08/12 03:30:33;;;;;;;10.00;8.00;;;18.90;99.90;;;;;;4945218;28;20371;-72
2023/08/12 03:32:58;;;;;;;9.32;7.65;;;19.00;99.90;;;;;;4946211;28;20037;-72
2023/08/12 03:35:24;;;;;;;11.70;8.20;;;19.00;99.90;;;;;;4943323;28;20107;-72
2023/08/12 03:37:51;;;;;;;9.80;8.15;;;19.00;99.90;;;;;;4926371;29;20088;-72
2023/08/12 03:40:16;;;;;;;8.90;7.80;;;19.00;99.90;;;;;;4943113;28;20051;-72
2023/08/12 03:42:42;;;;;;;10.60;8.00;;;19.00;99.90;;;;;;4948325;28;20078;-72
2023/08/12 03:45:08;;;;;;;11.75;8.60;;;19.00;99.90;;;;;;4926890;28;20028;-72
2023/08/12 03:47:34;;;;;;;10.25;7.78;;;19.00;99.90;;;;;;4925529;29;20099;-72
2023/08/12 03:49:59;;;;;;;12.02;7.93;;;19.10;99.90;;;;;;4959056;28;20403;-72
2023/08/12 03:52:25;;;;;;;10.30;7.97;;;19.10;99.90;;;;;;4927778;28;20054;-72
2023/08/12 03:54:52;;;;;;;10.75;8.27;;;19.10;99.90;;;;;;4945749;28;20050;-72
2023/08/12 03:57:18;;;;;;;11.50;7.72;;;19.10;99.90;;;;;;4926630;28;20071;-72
2023/08/12 03:59:43;;;;;;;19.33;8.25;;;19.10;99.90;;;;;;4928743;29;20042;-72
2023/08/12 04:02:09;;;;;;;10.60;8.63;;;19.20;99.90;;;;;;4947495;28;20068;-72
2023/08/12 04:04:35;;;;;;;10.43;8.02;;;19.20;99.90;;;;;;4944465;28;20042;-72
2023/08/12 04:07:00;;;;;;;13.65;8.82;;;19.20;99.90;;;;;;4925541;29;20513;-72
2023/08/12 04:09:26;;;;;;;15.48;8.68;;;19.20;99.90;;;;;;4928308;28;20600;-72
2023/08/12 04:11:51;;;;;;;10.93;8.25;;;19.20;99.90;;;;;;4942922;28;20523;-72
2023/08/12 04:14:17;;;;;;;11.60;7.70;;;19.30;99.90;;;;;;4941141;28;20107;-73
2023/08/12 04:16:42;;;;;;;11.30;8.45;;;19.20;99.90;;;;;;4942870;28;20036;-72
2023/08/12 04:19:08;;;;;;;12.30;7.78;;;19.30;99.90;;;;;;4931028;29;20086;-72
2023/08/12 04:21:34;;;;;;;11.07;7.60;;;19.20;99.90;;;;;;4944395;28;20098;-72
2023/08/12 04:24:00;;;;;;;12.43;7.72;;;19.30;99.90;;;;;;4925217;29;20414;-72
2023/08/12 04:26:25;;;;;;;13.25;8.40;;;19.30;99.90;;;;;;4944614;29;20036;-72
2023/08/12 04:28:51;;;;;;;9.38;7.65;;;19.30;99.90;;;;;;4944697;28;20056;-72
2023/08/12 04:31:16;;;;;;;12.43;7.03;;;19.30;99.90;;;;;;4942413;28;20042;-72
2023/08/12 04:33:42;;;;;;;13.43;8.60;;;19.30;99.90;;;;;;4945497;28;20082;-72
2023/08/12 04:36:08;;;;;;;9.40;8.05;;;19.30;99.90;;;;;;4930859;29;20046;-72
2023/08/12 04:38:33;;;;;;;11.02;7.97;;;19.30;99.90;;;;;;4932113;29;20043;-72
2023/08/12 04:40:59;;;;;;;12.48;8.20;;;19.30;99.90;;;;;;4959075;28;20039;-72
2023/08/12 04:43:26;;;;;;;11.65;8.32;;;19.30;99.90;;;;;;4948491;28;20163;-72
2023/08/12 04:45:52;;;;;;;10.95;8.20;;;19.40;99.90;;;;;;4947940;28;20043;-72
2023/08/12 04:48:18;;;;;;;10.32;6.85;;;19.40;99.90;;;;;;4948659;28;20469;-72
2023/08/12 04:50:43;;;;;;;12.95;8.05;;;19.40;99.90;;;;;;4949570;28;20063;-72
2023/08/12 04:53:09;;;;;;;13.65;8.00;;;19.40;99.90;;;;;;4950395;28;20549;-72
2023/08/12 04:55:35;;;;;;;9.75;8.02;;;19.40;99.90;;;;;;4950375;28;20040;-72
2023/08/12 04:58:02;;;;;;;9.40;7.68;;;19.40;99.90;;;;;;4947155;28;20130;-72
2023/08/12 05:00:28;;;;;;;9.10;7.45;;;19.40;99.90;;;;;;4950588;28;20036;-72
2023/08/12 05:02:54;;;;;;;14.63;8.57;;;19.40;99.90;;;;;;4928987;29;20576;-72
2023/08/12 05:05:20;;;;;;;11.82;7.57;;;19.50;99.90;;;;;;4948532;28;20038;-72
2023/08/12 05:07:48;;;;;;;14.85;8.57;;;19.40;99.90;;;;;;4961257;28;20508;-72
2023/08/12 05:10:16;;;;;;;12.85;7.93;;;19.40;99.90;;;;;;4929394;29;20047;-72
2023/08/12 05:12:46;;;;;;;8.55;7.63;;;19.50;99.90;;;;;;4949141;28;20039;-72
2023/08/12 05:15:11;;;;;;;15.23;8.63;;;19.40;99.90;;;;;;4928642;28;20043;-72
2023/08/12 05:17:37;;;;;;;11.73;8.80;;;19.50;99.90;;;;;;4931418;28;20051;-72
2023/08/12 05:20:04;;;;;;;10.20;8.38;;;19.50;99.90;;;;;;4963077;28;20126;-72
2023/08/12 05:22:29;;;;;;;13.60;8.85;;;19.50;99.90;;;;;;4930864;28;20038;-73
2023/08/12 05:24:55;;;;;;;11.32;8.32;;;19.60;99.90;;;;;;4961297;28;20039;-72
2023/08/12 05:27:21;;;;;;;13.05;9.07;;;19.60;99.90;;;;;;4930869;29;20086;-72
2023/08/12 05:29:46;;;;;;;13.68;9.15;;;19.60;99.90;;;;;;4947278;28;20039;-72
2023/08/12 05:32:12;;;;;;;11.90;9.73;;;19.70;99.90;;;;;;4930799;28;20061;-72
2023/08/12 05:34:37;;;;;;;13.95;10.63;;;19.80;99.90;;;;;;4930538;29;20050;-72
2023/08/12 05:37:03;;;;;;;16.17;10.40;;;19.90;99.90;;;;;;4928736;28;20334;-72
2023/08/12 05:39:29;;;;;;;16.15;10.50;;;19.90;99.90;;;;;;4944407;28;20040;-73
2023/08/12 05:41:54;;;;;;;11.73;10.13;;;20.00;99.90;;;;;;4931726;28;20031;-73
2023/08/12 05:44:20;;;;;;;10.63;9.55;;;20.00;99.90;;;;;;4947296;29;20036;-72
2023/08/12 05:46:45;;;;;;;16.20;10.73;;;20.10;99.90;;;;;;4946017;28;20051;-72
2023/08/12 05:49:11;;;;;;;14.27;10.65;;;20.20;99.90;;;;;;4948032;28;20134;-72
2023/08/12 05:51:38;;;;;;;13.57;9.77;;;20.20;99.90;;;;;;4949744;28;20067;-72
2023/08/12 05:54:04;;;;;;;18.00;11.35;;;20.30;99.90;;;;;;4948139;28;20047;-72
2023/08/12 05:56:30;;;;;;;17.48;10.70;;;20.40;99.90;;;;;;4947386;28;20043;-72
2023/08/12 05:58:55;;;;;;;13.50;10.85;;;20.40;99.90;;;;;;4947764;28;20043;-72
2023/08/12 06:01:21;;;;;;;12.38;10.73;;;20.50;99.90;;;;;;4927350;28;20039;-72
2023/08/12 06:03:47;;;;;;;12.07;10.32;;;20.60;99.90;;;;;;4928051;29;20175;-73
2023/08/12 06:06:12;;;;;;;11.60;10.13;;;20.70;99.90;;;;;;4950245;28;20050;-73
2023/08/12 06:08:38;;;;;;;15.27;10.50;;;20.80;99.90;;;;;;4947064;28;20397;-72
2023/08/12 06:11:03;;;;;;;13.90;10.65;;;20.90;99.90;;;;;;4947477;28;20061;-73
2023/08/12 06:13:29;;;;;;;17.52;12.43;;;20.90;99.90;;;;;;4949750;28;20047;-73
2023/08/12 06:15:55;;;;;;;17.38;11.40;;;21.00;99.90;;;;;;4946485;28;20047;-73
2023/08/12 06:18:20;;;;;;;16.92;11.80;;;21.00;99.90;;;;;;4947822;28;20036;-73
2023/08/12 06:20:46;;;;;;;13.88;12.35;;;21.00;99.90;;;;;;4948619;28;20450;-73
2023/08/12 06:23:12;;;;;;;14.95;12.48;;;20.90;99.90;;;;;;4933705;28;20062;-72
2023/08/12 06:25:38;;;;;;;16.38;12.93;;;20.80;99.90;;;;;;4947749;28;20308;-72
2023/08/12 06:28:08;;;;;;;18.95;13.55;;;20.90;99.90;;;;;;4929436;28;20047;-73
2023/08/12 06:30:34;;;;;;;18.38;13.07;;;20.80;99.90;;;;;;4947015;28;20106;-73
2023/08/12 06:32:59;;;;;;;16.50;13.10;;;20.80;99.90;;;;;;4944471;28;20123;-72
2023/08/12 06:35:25;;;;;;;17.48;12.95;;;20.80;99.90;;;;;;4946921;28;20086;-72
2023/08/12 06:37:51;;;;;;;17.58;13.77;;;20.70;99.90;;;;;;4930360;29;20043;-72
2023/08/12 06:40:17;;;;;;;17.92;13.30;;;20.80;99.90;;;;;;4931588;28;20031;-73
2023/08/12 06:42:42;;;;;;;17.73;14.00;;;20.80;99.90;;;;;;4949552;28;20039;-73
2023/08/12 06:45:09;;;;;;;19.63;12.73;;;20.80;99.90;;;;;;4949951;28;20390;-73
2023/08/12 06:47:34;;;;;;;21.98;13.88;;;21.10;99.90;;;;;;4944624;28;20488;-72
2023/08/12 06:50:00;;;;;;;17.05;12.15;;;20.80;99.90;;;;;;4946493;28;20046;-72
2023/08/12 06:52:25;;;;;;;18.42;12.85;;;20.90;99.90;;;;;;4931340;28;20039;-72
2023/08/12 06:54:51;;;;;;;21.88;12.68;;;20.90;99.90;;;;;;4929691;28;20446;-72
2023/08/12 06:57:17;;;;;;;17.30;13.85;;;20.80;99.90;;;;;;4943988;28;20040;-72
2023/08/12 06:59:43;;;;;;;17.02;12.52;;;20.80;99.90;;;;;;4947172;28;20046;-73
2023/08/12 07:02:08;;;;;;;16.60;13.75;;;20.80;99.90;;;;;;4929919;28;20134;-72
2023/08/12 07:04:34;;;;;;;18.67;13.75;;;20.80;99.90;;;;;;4950135;28;20043;-73
2023/08/12 07:07:00;;;;;;;18.50;14.07;;;20.80;99.90;;;;;;4944332;28;20043;-73
2023/08/12 07:09:25;;;;;;;17.48;13.85;;;20.80;99.90;;;;;;4931645;28;20047;-73
2023/08/12 07:11:51;;;;;;;16.50;13.88;;;20.80;99.90;;;;;;4929050;29;20047;-73
2023/08/12 07:14:17;;;;;;;20.52;14.15;;;20.80;99.90;;;;;;4926973;28;20047;-73
2023/08/12 07:16:42;;;;;;;14.55;12.85;;;20.80;99.90;;;;;;4943384;28;20164;-73
2023/08/12 07:19:08;;;;;;;15.82;13.00;;;20.80;99.90;;;;;;4951309;28;22085;-73
2023/08/12 07:21:34;;;;;;;15.98;12.55;;;20.80;99.90;;;;;;4930564;28;20493;-73
2023/08/12 07:23:59;;;;;;;20.17;15.13;;;20.80;99.90;;;;;;4930737;28;20050;-73
2023/08/12 07:26:25;;;;;;;20.35;13.57;;;20.80;99.90;;;;;;4934176;28;20078;-73
2023/08/12 07:28:51;;;;;;;19.45;13.50;;;20.80;99.90;;;;;;4946109;28;20047;-73
2023/08/12 07:31:18;;;;;;;19.35;13.52;;;20.90;99.90;;;;;;4946449;28;20127;-73
2023/08/12 07:33:43;;;;;;;15.43;13.55;;;20.90;99.90;;;;;;4923636;28;20051;-73
2023/08/12 07:36:09;;;;;;;19.13;13.43;;;20.90;99.90;;;;;;4956189;28;20046;-73
2023/08/12 07:38:35;;;;;;;17.40;13.90;;;20.90;99.90;;;;;;4953118;28;20471;-73
2023/08/12 07:41:01;;;;;;;16.17;13.88;;;20.90;99.90;;;;;;4955788;28;20044;-73
2023/08/12 07:43:26;;;;;;;14.50;13.07;;;20.90;99.90;;;;;;4939979;28;20091;-72
2023/08/12 07:45:53;;;;;;;15.32;13.07;;;21.00;99.90;;;;;;4929550;29;20541;-71
2023/08/12 07:48:19;;;;;;;16.10;13.32;;;21.00;99.90;;;;;;4946487;28;20612;-72
2023/08/12 07:50:45;;;;;;;15.23;13.63;;;21.00;99.90;;;;;;4945376;28;20466;-71
2023/08/12 07:53:10;;;;;;;20.25;14.60;;;21.00;99.90;;;;;;4925609;29;20070;-69
2023/08/12 07:55:36;;;;;;;16.65;13.80;;;21.00;99.90;;;;;;4948263;28;20042;-69
2023/08/12 07:58:02;;;;;;;16.88;13.73;;;21.00;99.90;;;;;;4956300;28;20118;-70
2023/08/12 08:00:28;;;;;;;18.50;15.27;;;21.00;99.90;;;;;;4946142;28;20039;-70
2023/08/12 08:02:53;;;;;;;19.45;14.52;;;21.00;99.90;;;;;;4944182;28;20107;-70
2023/08/12 08:05:19;;;;;;;17.35;14.20;;;21.00;99.90;;;;;;4930120;28;20051;-71
2023/08/12 08:07:44;;;;;;;18.27;15.65;;;21.10;99.90;;;;;;4943526;28;20128;-71
2023/08/12 08:10:10;;;;;;;17.33;14.07;;;21.10;99.90;;;;;;4945486;28;20446;-71
2023/08/12 08:12:36;;;;;;;17.77;14.32;;;21.00;99.90;;;;;;4931698;28;20055;-70
2023/08/12 08:15:03;;;;;;;17.92;15.48;;;21.00;99.90;;;;;;4928983;28;20074;-70
2023/08/12 08:17:28;;;;;;;16.88;14.38;;;21.00;99.90;;;;;;4931669;28;20043;-69
2023/08/12 08:19:54;;;;;;;15.55;14.00;;;21.00;99.90;;;;;;4933312;28;20102;-67
2023/08/12 08:22:20;;;;;;;14.25;12.77;;;21.00;99.90;;;;;;4951835;28;20046;-68
2023/08/12 08:24:45;;;;;;;16.75;12.80;;;21.00;99.90;;;;;;4949264;28;20039;-68
2023/08/12 08:27:11;;;;;;;16.20;14.27;;;20.90;99.90;;;;;;4948642;28;20463;-67
2023/08/12 08:29:37;;;;;;;17.33;14.68;;;20.90;99.90;;;;;;4948765;28;20035;-68
2023/08/12 08:32:02;;;;;;;16.50;14.55;;;20.90;99.90;;;;;;4930893;29;20050;-69
2023/08/12 08:34:28;;;;;;;16.50;14.65;;;20.90;99.90;;;;;;4947306;28;20475;-68
2023/08/12 08:36:54;;;;;;;19.65;16.15;;;20.90;99.90;;;;;;4944498;28;20134;-70
2023/08/12 08:39:20;;;;;;;17.38;14.57;;;20.90;99.90;;;;;;4929947;28;20051;-70
2023/08/12 08:41:48;;;;;;;20.45;16.20;;;20.90;99.90;;;;;;4927130;28;20043;-70
2023/08/12 08:44:15;;;;;;;17.70;14.43;;;20.80;99.90;;;;;;4948040;28;20394;-69
2023/08/12 08:46:43;;;;;;;16.23;14.52;;;20.80;99.90;;;;;;4949121;28;20731;-70
2023/08/12 08:49:10;;;;;;;16.98;14.90;;;20.80;99.90;;;;;;4960560;28;20070;-68
2023/08/12 08:51:35;;;;;;;15.73;14.18;;;20.70;99.90;;;;;;4931980;29;20046;-69
2023/08/12 08:54:04;;;;;;;13.82;12.50;;;20.70;99.90;;;;;;4948765;28;20125;-68
2023/08/12 08:56:32;;;;;;;14.10;12.77;;;20.70;99.90;;;;;;4947941;28;20139;-68
2023/08/12 08:58:58;;;;;;;13.30;11.95;;;20.70;99.90;;;;;;4948777;28;20494;-70
2023/08/12 09:01:24;;;;;;;14.90;13.15;;;20.60;99.90;;;;;;4945009;28;20380;-69
2023/08/12 09:03:53;;;;;;;13.32;12.02;;;20.70;99.90;;;;;;4934368;29;20119;-70
2023/08/12 09:06:28;;;;;;;12.88;11.50;;;20.70;99.90;;;;;;4948540;28;20135;-70
2023/08/12 09:08:54;;;;;;;11.65;9.30;;;20.60;99.90;;;;;;4959643;28;20055;-70
2023/08/12 09:11:20;;;;;;;9.65;7.07;;;20.60;99.90;;;;;;4947086;28;20076;-70
2023/08/12 09:13:47;;;;;;;8.90;6.03;;;20.50;99.90;;;;;;4961527;28;20039;-70
2023/08/12 09:16:13;;;;;;;8.20;5.85;;;20.40;99.90;;;;;;4965673;28;20042;-70
2023/08/12 09:18:41;;;;;;;7.10;5.65;;;20.40;99.90;;;;;;4956965;28;20054;-70
2023/08/12 09:21:08;;;;;;;8.60;5.50;;;20.30;99.90;;;;;;4955610;29;20159;-70
2023/08/12 09:23:41;;;;;;;7.78;4.68;;;20.30;99.90;;;;;;4956652;29;20043;-70
2023/08/12 09:26:18;;;;;;;6.13;4.43;;;20.20;99.90;;;;;;4971038;28;20043;-70
2023/08/12 09:32:25;;;;;;;6.38;3.47;;;20.10;99.90;;;;;;4954547;29;20062;-69
2023/08/12 09:38:32;;;;;;;8.27;4.03;;;20.00;99.90;;;;;;4955148;28;20049;-70
2023/08/12 09:44:38;;;;;;;6.72;3.17;;;20.00;99.90;;;;;;4954143;28;20101;-70
2023/08/12 09:47:05;;;;;;;6.25;3.40;;;20.00;99.90;;;;;;4969178;28;20214;-69
2023/08/12 09:53:12;;;;;;;5.13;3.40;;;19.90;99.90;;;;;;4955905;29;20101;-69
2023/08/12 09:55:38;;;;;;;6.95;3.72;;;20.00;99.90;;;;;;4954470;28;20557;-70
2023/08/12 10:01:45;;;;;;;7.32;3.97;;;20.00;99.90;;;;;;4954645;29;20223;-69
2023/08/12 10:04:14;;;;;;;6.32;3.38;;;20.10;99.90;;;;;;4969136;28;20063;-70
2023/08/12 10:06:41;;;;;;;5.95;3.75;;;20.10;99.90;;;;;;4954868;28;20160;-70
2023/08/12 10:09:08;;;;;;;7.13;4.53;;;20.20;99.90;;;;;;4955385;28;20043;-70
2023/08/12 10:11:34;;;;;;;4.00;2.97;;;20.10;99.90;;;;;;4955530;29;20114;-70
2023/08/12 10:14:01;;;;;;;5.53;3.28;;;20.30;99.90;;;;;;4955293;29;20049;-70
2023/08/12 10:16:30;;;;;;;4.10;3.00;;;20.30;99.90;;;;;;4954390;28;20062;-70
2023/08/12 10:18:57;;;;;;;5.07;3.33;;;20.40;99.90;;;;;;4922146;29;20051;-70
2023/08/12 10:21:24;;;;;;;6.28;2.63;;;20.50;99.90;;;;;;4955167;28;20410;-70
2023/08/12 10:23:50;;;;;;;3.17;2.60;;;20.50;99.90;;;;;;4938395;29;20047;-70
2023/08/12 10:26:17;;;;;;;3.25;1.17;;;20.60;99.90;;;;;;4938609;28;20539;-69
2023/08/12 10:28:43;;;;;;;2.90;1.10;;;20.50;99.90;;;;;;4955300;29;20039;-70
2023/08/12 10:34:57;;;;;;;2.85;0.90;;;20.60;99.90;;;;;;4955230;29;20062;-70
2023/08/12 10:37:24;;;;;;;1.05;0.90;;;20.70;99.90;;;;;;4969305;28;20491;-70
2023/08/12 10:39:55;;;;;;;1.88;0.65;;;20.70;99.90;;;;;;4954643;29;20378;-70
2023/08/12 10:46:01;;;;;;;0.93;0.70;;;20.60;99.90;;;;;;4955161;29;20102;-70
2023/08/12 10:48:27;;;;;;;2.97;0.88;;;20.60;99.90;;;;;;4954492;29;20043;-70
2023/08/12 10:50:59;;;;;;;2.03;0.80;;;20.60;99.90;;;;;;4968918;28;20043;-70
2023/08/12 10:53:33;;;;;;;1.20;0.38;;;20.60;99.90;;;;;;4970532;28;20478;-70
2023/08/12 10:56:11;;;;;;;1.00;0.60;;;20.60;99.90;;;;;;4937872;29;20390;-69
2023/08/12 10:58:47;;;;;;;0.47;0.40;;;20.50;99.90;;;;;;4937543;29;20090;-70
2023/08/12 11:05:02;;;;;;;0.68;0.30;;;20.50;99.90;;;;;;4953694;29;20038;-70
2023/08/12 11:07:42;;;;;;;1.35;0.43;;;20.60;99.90;;;;;;4954856;29;20062;-70
2023/08/12 11:10:12;;;;;;;0.30;0.30;;;20.60;99.90;;;;;;4954839;29;20039;-70
2023/08/12 11:12:39;;;;;;;0.70;0.40;;;20.60;99.90;;;;;;4955066;29;20043;-70
2023/08/12 11:15:05;;;;;;;9.73;1.00;;;20.60;99.90;;;;;;4954127;29;20051;-70
2023/08/12 11:17:39;;;;;;;1.33;0.40;;;20.60;99.90;;;;;;4935827;29;20534;-70
2023/08/12 11:23:46;;;;;;;0.40;0.40;;;20.70;99.90;;;;;;4954196;29;20030;-70
2023/08/12 11:26:13;;;;;;;1.30;0.60;;;20.70;99.90;;;;;;4937208;29;20051;-70
2023/08/12 11:28:39;;;;;;;1.85;0.40;;;20.80;99.90;;;;;;4937285;29;20134;-70
2023/08/12 11:31:05;;;;;;;0.75;0.50;;;20.80;99.90;;;;;;4954568;28;20053;-70
2023/08/12 11:33:31;;;;;;;0.60;0.40;;;20.80;99.90;;;;;;4936319;29;20522;-70
2023/08/12 11:35:57;;;;;;;1.23;0.60;;;20.90;99.90;;;;;;4921545;29;20043;-69
2023/08/12 11:38:23;;;;;;;1.10;0.63;;;21.00;99.90;;;;;;4954444;29;20505;-69
2023/08/12 11:40:50;;;;;;;2.88;1.05;;;21.10;99.90;;;;;;4969438;28;20372;-69
2023/08/12 11:43:16;;;;;;;0.70;0.60;;;21.20;99.90;;;;;;4936709;29;20047;-69
2023/08/12 11:45:42;;;;;;;1.13;0.80;;;21.40;99.90;;;;;;4954380;29;20041;-70
2023/08/12 11:51:49;;;;;;;1.40;0.80;;;21.50;99.90;;;;;;4954164;29;20038;-68
2023/08/12 11:54:16;;;;;;;1.55;0.70;;;21.50;99.90;;;;;;4954612;29;20043;-69
2023/08/12 11:56:42;;;;;;;1.38;0.30;;;21.50;99.90;;;;;;4968881;28;20043;-69
2023/08/12 11:59:07;;;;;;;1.35;0.30;;;21.40;99.90;;;;;;4936801;29;20044;-69
2023/08/12 12:05:14;;;;;;;5.43;0.50;;;21.00;99.90;;;;;;4953291;29;20037;-68
2023/08/12 12:07:40;;;;;;;2.35;0.70;;;21.10;99.90;;;;;;4968487;28;20070;-69
2023/08/12 12:13:47;;;;;;;1.00;0.55;;;21.50;99.90;;;;;;4953468;29;20402;-69
2023/08/12 12:16:14;;;;;;;1.60;0.60;;;21.70;99.90;;;;;;4953491;29;20215;-68
2023/08/12 12:18:40;;;;;;;2.22;1.02;;;21.70;99.90;;;;;;4953872;29;20157;-68
2023/08/12 12:21:06;;;;;;;4.32;0.88;;;21.80;99.90;;;;;;4953877;29;20119;-68
2023/08/12 12:23:31;;;;;;;5.75;0.80;;;22.00;99.90;;;;;;4953048;29;20039;-68
2023/08/12 12:26:02;;;;;;;1.23;0.40;;;22.00;99.90;;;;;;4936229;29;20050;-68
2023/08/12 12:28:28;;;;;;;1.92;0.70;;;22.10;99.90;;;;;;4953551;29;20497;-68
2023/08/12 12:30:54;;;;;;;1.75;0.60;;;22.10;99.90;;;;;;4935488;29;20082;-68
2023/08/12 12:33:19;;;;;;;3.00;0.82;;;22.20;99.90;;;;;;4936701;29;20086;-68
2023/08/12 12:35:45;;;;;;;2.58;1.20;;;22.40;99.90;;;;;;4953605;29;20083;-68
2023/08/12 12:41:51;;;;;;;2.13;0.88;;;22.70;99.90;;;;;;4953285;29;20489;-68
2023/08/12 12:44:17;;;;;;;5.20;1.10;;;22.70;99.90;;;;;;4953547;29;20039;-68
2023/08/12 12:46:42;;;;;;;4.50;1.17;;;22.70;99.90;;;;;;4953230;29;20410;-68
2023/08/12 12:49:08;;;;;;;3.80;1.30;;;22.80;99.90;;;;;;4953871;29;20050;-68
2023/08/12 12:51:33;;;;;;;12.05;2.00;;;22.90;99.90;;;;;;4951903;29;20047;-68
2023/08/12 12:57:40;;;;;;;4.28;1.30;;;23.10;99.90;;;;;;4956456;29;20106;-67
2023/08/12 13:00:10;;;;;;;3.10;1.27;;;23.20;99.90;;;;;;4939448;29;20047;-68
2023/08/12 13:02:35;;;;;;;3.92;1.27;;;23.40;99.90;;;;;;4957105;29;20035;-68
2023/08/12 13:05:01;;;;;;;8.00;2.33;;;23.40;99.90;;;;;;4957386;29;20090;-67
2023/08/12 13:11:07;;;;;;;7.05;2.30;;;23.60;99.90;;;;;;4956466;29;20035;-68
2023/08/12 13:13:33;;;;;;;3.47;0.98;;;23.80;99.90;;;;;;4939905;29;20055;-68
2023/08/12 13:15:59;;;;;;;4.55;1.20;;;23.80;99.90;;;;;;4956413;29;20118;-68
2023/08/12 13:18:24;;;;;;;6.97;1.80;;;23.80;99.90;;;;;;4939216;29;20446;-68
2023/08/12 13:20:50;;;;;;;4.53;1.38;;;23.80;99.90;;;;;;4956730;29;20043;-67
2023/08/12 13:23:15;;;;;;;4.10;1.10;;;23.80;99.90;;;;;;4956886;29;20035;-68
2023/08/12 13:25:41;;;;;;;6.88;1.55;;;23.90;99.90;;;;;;4956431;29;20043;-68
2023/08/12 13:28:07;;;;;;;5.20;1.00;;;23.90;99.90;;;;;;4955840;29;20409;-68